sensor_id;sensor_type;location;lat;lon;timestamp;P1;durP1;ratioP1;P2;durP2;ratioP2
11699;SDS011;5906;51.660;6.674;2024-03-02T00:01:37;3.10;;;2.77;;
11699;SDS011;5906;51.660;6.674;2024-03-02T00:04:04;3.30;;;2.80;;
11699;SDS011;5906;51.660;6.674;2024-03-02T00:06:33;3.20;;;3.00;;
11699;SDS011;5906;51.660;6.674;2024-03-02T00:09:01;2.93;;;2.67;;
11699;SDS011;5906;51.660;6.674;2024-03-02T00:11:29;3.40;;;3.20;;
11699;SDS011;5906;51.660;6.674;2024-03-02T00:13:56;4.00;;;2.70;;
11699;SDS011;5906;51.660;6.674;2024-03-02T00:16:23;2.67;;;2.47;;
11699;SDS011;5906;51.660;6.674;2024-03-02T00:18:50;3.40;;;2.87;;
11699;SDS011;5906;51.660;6.674;2024-03-02T00:21:18;3.10;;;2.90;;
11699;SDS011;5906;51.660;6.674;2024-03-02T00:23:48;2.77;;;2.57;;
11699;SDS011;5906;51.660;6.674;2024-03-02T00:26:18;3.37;;;2.90;;
11699;SDS011;5906;51.660;6.674;2024-03-02T00:28:45;3.20;;;2.90;;
11699;SDS011;5906;51.660;6.674;2024-03-02T00:31:13;3.20;;;2.83;;
11699;SDS011;5906;51.660;6.674;2024-03-02T00:33:47;2.87;;;2.67;;
11699;SDS011;5906;51.660;6.674;2024-03-02T00:36:16;3.03;;;2.80;;
11699;SDS011;5906;51.660;6.674;2024-03-02T00:38:50;3.23;;;2.93;;
11699;SDS011;5906;51.660;6.674;2024-03-02T00:44:01;2.63;;;2.47;;
11699;SDS011;5906;51.660;6.674;2024-03-02T00:46:33;3.10;;;2.63;;
11699;SDS011;5906;51.660;6.674;2024-03-02T00:51:51;2.77;;;2.57;;
11699;SDS011;5906;51.660;6.674;2024-03-02T00:54:19;3.67;;;2.67;;
11699;SDS011;5906;51.660;6.674;2024-03-02T00:56:52;2.50;;;2.30;;
11699;SDS011;5906;51.660;6.674;2024-03-02T00:59:22;2.73;;;2.53;;
11699;SDS011;5906;51.660;6.674;2024-03-02T01:01:49;2.53;;;2.37;;
11699;SDS011;5906;51.660;6.674;2024-03-02T01:04:17;3.30;;;2.80;;
11699;SDS011;5906;51.660;6.674;2024-03-02T01:06:44;2.83;;;2.60;;
11699;SDS011;5906;51.660;6.674;2024-03-02T01:09:12;4.63;;;2.47;;
11699;SDS011;5906;51.660;6.674;2024-03-02T01:11:39;2.67;;;2.47;;
11699;SDS011;5906;51.660;6.674;2024-03-02T01:14:06;3.00;;;2.80;;
11699;SDS011;5906;51.660;6.674;2024-03-02T01:16:33;3.30;;;3.03;;
11699;SDS011;5906;51.660;6.674;2024-03-02T01:19:00;3.83;;;2.80;;
11699;SDS011;5906;51.660;6.674;2024-03-02T01:21:27;3.27;;;2.93;;
11699;SDS011;5906;51.660;6.674;2024-03-02T01:23:54;3.30;;;3.10;;
11699;SDS011;5906;51.660;6.674;2024-03-02T01:26:21;5.30;;;4.10;;
11699;SDS011;5906;51.660;6.674;2024-03-02T01:28:48;3.70;;;3.00;;
11699;SDS011;5906;51.660;6.674;2024-03-02T01:31:15;4.97;;;2.57;;
11699;SDS011;5906;51.660;6.674;2024-03-02T01:33:42;3.10;;;2.77;;
11699;SDS011;5906;51.660;6.674;2024-03-02T01:36:09;3.37;;;3.17;;
11699;SDS011;5906;51.660;6.674;2024-03-02T01:38:36;4.63;;;3.33;;
11699;SDS011;5906;51.660;6.674;2024-03-02T01:41:03;8.60;;;3.40;;
11699;SDS011;5906;51.660;6.674;2024-03-02T01:43:30;4.13;;;3.63;;
11699;SDS011;5906;51.660;6.674;2024-03-02T01:45:57;6.77;;;3.20;;
11699;SDS011;5906;51.660;6.674;2024-03-02T01:48:25;3.53;;;3.23;;
11699;SDS011;5906;51.660;6.674;2024-03-02T01:50:52;4.80;;;2.90;;
11699;SDS011;5906;51.660;6.674;2024-03-02T01:53:19;3.33;;;2.80;;
11699;SDS011;5906;51.660;6.674;2024-03-02T01:55:46;3.33;;;3.03;;
11699;SDS011;5906;51.660;6.674;2024-03-02T01:58:13;6.20;;;3.30;;
11699;SDS011;5906;51.660;6.674;2024-03-02T02:00:40;3.80;;;3.10;;
11699;SDS011;5906;51.660;6.674;2024-03-02T02:03:08;4.60;;;3.00;;
11699;SDS011;5906;51.660;6.674;2024-03-02T02:05:36;5.10;;;3.07;;
11699;SDS011;5906;51.660;6.674;2024-03-02T02:08:03;6.07;;;3.67;;
11699;SDS011;5906;51.660;6.674;2024-03-02T02:10:31;3.47;;;3.17;;
11699;SDS011;5906;51.660;6.674;2024-03-02T02:12:58;5.83;;;3.40;;
11699;SDS011;5906;51.660;6.674;2024-03-02T02:15:25;3.60;;;3.13;;
11699;SDS011;5906;51.660;6.674;2024-03-02T02:17:54;4.77;;;3.10;;
11699;SDS011;5906;51.660;6.674;2024-03-02T02:20:21;4.87;;;3.70;;
11699;SDS011;5906;51.660;6.674;2024-03-02T02:22:54;5.20;;;3.23;;
11699;SDS011;5906;51.660;6.674;2024-03-02T02:25:25;10.37;;;4.03;;
11699;SDS011;5906;51.660;6.674;2024-03-02T02:27:52;4.80;;;3.93;;
11699;SDS011;5906;51.660;6.674;2024-03-02T02:30:24;4.27;;;3.47;;
11699;SDS011;5906;51.660;6.674;2024-03-02T02:32:52;3.93;;;3.23;;
11699;SDS011;5906;51.660;6.674;2024-03-02T02:35:20;5.03;;;3.43;;
11699;SDS011;5906;51.660;6.674;2024-03-02T02:37:48;5.73;;;3.33;;
11699;SDS011;5906;51.660;6.674;2024-03-02T02:40:16;3.83;;;3.33;;
11699;SDS011;5906;51.660;6.674;2024-03-02T02:42:45;3.93;;;3.50;;
11699;SDS011;5906;51.660;6.674;2024-03-02T02:45:13;4.30;;;3.10;;
11699;SDS011;5906;51.660;6.674;2024-03-02T02:47:42;4.27;;;2.90;;
11699;SDS011;5906;51.660;6.674;2024-03-02T02:50:10;4.30;;;2.77;;
11699;SDS011;5906;51.660;6.674;2024-03-02T02:52:39;4.80;;;2.83;;
11699;SDS011;5906;51.660;6.674;2024-03-02T02:55:08;5.00;;;3.23;;
11699;SDS011;5906;51.660;6.674;2024-03-02T02:57:36;4.90;;;3.17;;
11699;SDS011;5906;51.660;6.674;2024-03-02T03:00:07;4.40;;;3.00;;
11699;SDS011;5906;51.660;6.674;2024-03-02T03:02:48;11.83;;;3.47;;
11699;SDS011;5906;51.660;6.674;2024-03-02T03:05:17;8.00;;;3.93;;
11699;SDS011;5906;51.660;6.674;2024-03-02T03:07:45;5.10;;;3.37;;
11699;SDS011;5906;51.660;6.674;2024-03-02T03:10:15;4.00;;;3.60;;
11699;SDS011;5906;51.660;6.674;2024-03-02T03:12:43;3.87;;;2.73;;
11699;SDS011;5906;51.660;6.674;2024-03-02T03:15:11;2.80;;;2.60;;
11699;SDS011;5906;51.660;6.674;2024-03-02T03:17:39;3.20;;;2.60;;
11699;SDS011;5906;51.660;6.674;2024-03-02T03:20:07;3.20;;;2.90;;
11699;SDS011;5906;51.660;6.674;2024-03-02T03:22:37;5.00;;;2.73;;
11699;SDS011;5906;51.660;6.674;2024-03-02T03:25:05;3.77;;;2.70;;
11699;SDS011;5906;51.660;6.674;2024-03-02T03:27:35;2.60;;;2.40;;
11699;SDS011;5906;51.660;6.674;2024-03-02T03:30:03;2.43;;;2.23;;
11699;SDS011;5906;51.660;6.674;2024-03-02T03:32:30;3.37;;;2.63;;
11699;SDS011;5906;51.660;6.674;2024-03-02T03:34:57;4.80;;;2.70;;
11699;SDS011;5906;51.660;6.674;2024-03-02T03:37:24;2.90;;;2.70;;
11699;SDS011;5906;51.660;6.674;2024-03-02T03:39:53;3.27;;;2.80;;
11699;SDS011;5906;51.660;6.674;2024-03-02T03:42:20;2.70;;;2.43;;
11699;SDS011;5906;51.660;6.674;2024-03-02T03:44:47;2.70;;;2.50;;
11699;SDS011;5906;51.660;6.674;2024-03-02T03:47:14;11.27;;;2.63;;
11699;SDS011;5906;51.660;6.674;2024-03-02T03:49:41;4.40;;;2.80;;
11699;SDS011;5906;51.660;6.674;2024-03-02T03:52:08;4.00;;;2.33;;
11699;SDS011;5906;51.660;6.674;2024-03-02T03:54:35;2.63;;;2.43;;
11699;SDS011;5906;51.660;6.674;2024-03-02T03:57:04;2.43;;;2.23;;
11699;SDS011;5906;51.660;6.674;2024-03-02T03:59:32;2.60;;;2.40;;
11699;SDS011;5906;51.660;6.674;2024-03-02T04:01:59;5.87;;;2.47;;
11699;SDS011;5906;51.660;6.674;2024-03-02T04:04:26;2.20;;;2.00;;
11699;SDS011;5906;51.660;6.674;2024-03-02T04:06:53;2.53;;;2.33;;
11699;SDS011;5906;51.660;6.674;2024-03-02T04:09:21;2.70;;;2.50;;
11699;SDS011;5906;51.660;6.674;2024-03-02T04:11:48;3.13;;;2.40;;
11699;SDS011;5906;51.660;6.674;2024-03-02T04:14:15;2.30;;;2.10;;
11699;SDS011;5906;51.660;6.674;2024-03-02T04:16:42;3.73;;;2.30;;
11699;SDS011;5906;51.660;6.674;2024-03-02T04:19:09;2.53;;;2.30;;
11699;SDS011;5906;51.660;6.674;2024-03-02T04:21:36;2.10;;;2.00;;
11699;SDS011;5906;51.660;6.674;2024-03-02T04:24:03;2.47;;;2.27;;
11699;SDS011;5906;51.660;6.674;2024-03-02T04:26:31;3.20;;;2.60;;
11699;SDS011;5906;51.660;6.674;2024-03-02T04:28:58;3.70;;;1.80;;
11699;SDS011;5906;51.660;6.674;2024-03-02T04:31:25;3.57;;;2.87;;
11699;SDS011;5906;51.660;6.674;2024-03-02T04:33:52;2.53;;;2.33;;
11699;SDS011;5906;51.660;6.674;2024-03-02T04:36:20;2.20;;;2.10;;
11699;SDS011;5906;51.660;6.674;2024-03-02T04:38:47;2.50;;;2.30;;
11699;SDS011;5906;51.660;6.674;2024-03-02T04:41:15;2.33;;;1.93;;
11699;SDS011;5906;51.660;6.674;2024-03-02T04:43:42;2.33;;;2.23;;
11699;SDS011;5906;51.660;6.674;2024-03-02T04:46:09;2.50;;;2.20;;
11699;SDS011;5906;51.660;6.674;2024-03-02T04:48:37;6.63;;;2.60;;
11699;SDS011;5906;51.660;6.674;2024-03-02T04:51:04;2.97;;;2.40;;
11699;SDS011;5906;51.660;6.674;2024-03-02T04:53:31;3.10;;;2.80;;
11699;SDS011;5906;51.660;6.674;2024-03-02T04:55:58;2.60;;;2.40;;
11699;SDS011;5906;51.660;6.674;2024-03-02T04:58:43;3.40;;;2.87;;
11699;SDS011;5906;51.660;6.674;2024-03-02T05:01:10;3.50;;;2.63;;
11699;SDS011;5906;51.660;6.674;2024-03-02T05:03:38;2.73;;;2.53;;
11699;SDS011;5906;51.660;6.674;2024-03-02T05:06:05;5.73;;;2.43;;
11699;SDS011;5906;51.660;6.674;2024-03-02T05:08:32;2.80;;;2.40;;
11699;SDS011;5906;51.660;6.674;2024-03-02T05:11:00;2.13;;;2.03;;
11699;SDS011;5906;51.660;6.674;2024-03-02T05:13:47;2.30;;;2.20;;
11699;SDS011;5906;51.660;6.674;2024-03-02T05:16:14;2.10;;;2.00;;
11699;SDS011;5906;51.660;6.674;2024-03-02T05:18:41;2.33;;;2.23;;
11699;SDS011;5906;51.660;6.674;2024-03-02T05:21:09;2.50;;;2.30;;
11699;SDS011;5906;51.660;6.674;2024-03-02T05:23:36;6.93;;;2.60;;
11699;SDS011;5906;51.660;6.674;2024-03-02T05:26:03;3.10;;;2.30;;
11699;SDS011;5906;51.660;6.674;2024-03-02T05:28:30;2.70;;;2.50;;
11699;SDS011;5906;51.660;6.674;2024-03-02T05:30:57;2.30;;;2.10;;
11699;SDS011;5906;51.660;6.674;2024-03-02T05:33:24;2.57;;;2.10;;
11699;SDS011;5906;51.660;6.674;2024-03-02T05:35:52;2.63;;;2.43;;
11699;SDS011;5906;51.660;6.674;2024-03-02T05:38:19;3.20;;;2.10;;
11699;SDS011;5906;51.660;6.674;2024-03-02T05:40:48;2.27;;;2.00;;
11699;SDS011;5906;51.660;6.674;2024-03-02T05:43:15;2.77;;;2.40;;
11699;SDS011;5906;51.660;6.674;2024-03-02T05:45:42;2.83;;;2.43;;
11699;SDS011;5906;51.660;6.674;2024-03-02T05:48:09;5.60;;;2.47;;
11699;SDS011;5906;51.660;6.674;2024-03-02T05:50:36;2.50;;;2.40;;
11699;SDS011;5906;51.660;6.674;2024-03-02T05:53:03;2.90;;;2.50;;
11699;SDS011;5906;51.660;6.674;2024-03-02T05:55:31;2.33;;;2.23;;
11699;SDS011;5906;51.660;6.674;2024-03-02T05:57:58;2.90;;;2.60;;
11699;SDS011;5906;51.660;6.674;2024-03-02T06:00:25;2.87;;;2.57;;
11699;SDS011;5906;51.660;6.674;2024-03-02T06:02:52;2.60;;;2.50;;
11699;SDS011;5906;51.660;6.674;2024-03-02T06:05:20;2.30;;;2.20;;
11699;SDS011;5906;51.660;6.674;2024-03-02T06:07:47;2.80;;;2.60;;
11699;SDS011;5906;51.660;6.674;2024-03-02T06:10:14;7.13;;;2.40;;
11699;SDS011;5906;51.660;6.674;2024-03-02T06:12:41;4.10;;;2.60;;
11699;SDS011;5906;51.660;6.674;2024-03-02T06:15:11;4.30;;;2.47;;
11699;SDS011;5906;51.660;6.674;2024-03-02T06:17:38;2.27;;;2.17;;
11699;SDS011;5906;51.660;6.674;2024-03-02T06:20:05;2.93;;;2.53;;
11699;SDS011;5906;51.660;6.674;2024-03-02T06:22:35;2.53;;;2.33;;
11699;SDS011;5906;51.660;6.674;2024-03-02T06:25:02;3.00;;;2.80;;
11699;SDS011;5906;51.660;6.674;2024-03-02T06:27:29;4.10;;;3.50;;
11699;SDS011;5906;51.660;6.674;2024-03-02T06:29:56;7.30;;;3.60;;
11699;SDS011;5906;51.660;6.674;2024-03-02T06:32:23;4.00;;;3.60;;
11699;SDS011;5906;51.660;6.674;2024-03-02T06:34:51;6.50;;;2.63;;
11699;SDS011;5906;51.660;6.674;2024-03-02T06:37:18;6.77;;;3.67;;
11699;SDS011;5906;51.660;6.674;2024-03-02T06:39:45;5.40;;;3.37;;
11699;SDS011;5906;51.660;6.674;2024-03-02T06:42:12;4.73;;;3.37;;
11699;SDS011;5906;51.660;6.674;2024-03-02T06:44:39;2.97;;;2.77;;
11699;SDS011;5906;51.660;6.674;2024-03-02T06:47:06;4.37;;;3.97;;
11699;SDS011;5906;51.660;6.674;2024-03-02T06:49:33;3.27;;;2.90;;
11699;SDS011;5906;51.660;6.674;2024-03-02T06:52:01;5.10;;;4.20;;
11699;SDS011;5906;51.660;6.674;2024-03-02T06:54:28;6.00;;;5.37;;
11699;SDS011;5906;51.660;6.674;2024-03-02T06:56:55;4.33;;;3.93;;
11699;SDS011;5906;51.660;6.674;2024-03-02T06:59:22;8.67;;;4.30;;
11699;SDS011;5906;51.660;6.674;2024-03-02T07:01:51;5.33;;;4.53;;
11699;SDS011;5906;51.660;6.674;2024-03-02T07:04:18;6.93;;;4.60;;
11699;SDS011;5906;51.660;6.674;2024-03-02T07:06:45;6.23;;;4.90;;
11699;SDS011;5906;51.660;6.674;2024-03-02T07:09:12;8.60;;;5.00;;
11699;SDS011;5906;51.660;6.674;2024-03-02T07:11:39;8.00;;;4.63;;
11699;SDS011;5906;51.660;6.674;2024-03-02T07:14:06;7.73;;;4.67;;
11699;SDS011;5906;51.660;6.674;2024-03-02T07:16:33;10.70;;;4.87;;
11699;SDS011;5906;51.660;6.674;2024-03-02T07:19:01;8.60;;;4.77;;
11699;SDS011;5906;51.660;6.674;2024-03-02T07:21:28;10.33;;;4.80;;
11699;SDS011;5906;51.660;6.674;2024-03-02T07:23:56;10.90;;;5.00;;
11699;SDS011;5906;51.660;6.674;2024-03-02T07:26:23;8.93;;;4.40;;
11699;SDS011;5906;51.660;6.674;2024-03-02T07:28:53;10.13;;;4.63;;
11699;SDS011;5906;51.660;6.674;2024-03-02T07:31:20;8.97;;;5.67;;
11699;SDS011;5906;51.660;6.674;2024-03-02T07:33:47;6.57;;;4.80;;
11699;SDS011;5906;51.660;6.674;2024-03-02T07:36:15;7.53;;;5.30;;
11699;SDS011;5906;51.660;6.674;2024-03-02T07:38:43;7.47;;;5.57;;
11699;SDS011;5906;51.660;6.674;2024-03-02T07:41:11;9.70;;;4.80;;
11699;SDS011;5906;51.660;6.674;2024-03-02T07:43:38;15.10;;;6.00;;
11699;SDS011;5906;51.660;6.674;2024-03-02T07:46:06;5.20;;;4.70;;
11699;SDS011;5906;51.660;6.674;2024-03-02T07:48:34;5.63;;;4.63;;
11699;SDS011;5906;51.660;6.674;2024-03-02T07:51:00;9.27;;;4.97;;
11699;SDS011;5906;51.660;6.674;2024-03-02T07:53:29;9.13;;;5.33;;
11699;SDS011;5906;51.660;6.674;2024-03-02T07:55:56;6.70;;;4.73;;
11699;SDS011;5906;51.660;6.674;2024-03-02T07:58:28;8.40;;;4.30;;
11699;SDS011;5906;51.660;6.674;2024-03-02T08:00:56;10.97;;;5.90;;
11699;SDS011;5906;51.660;6.674;2024-03-02T08:03:24;8.60;;;6.10;;
11699;SDS011;5906;51.660;6.674;2024-03-02T08:05:51;10.20;;;5.00;;
11699;SDS011;5906;51.660;6.674;2024-03-02T08:08:19;9.10;;;5.37;;
11699;SDS011;5906;51.660;6.674;2024-03-02T08:10:47;6.50;;;4.60;;
11699;SDS011;5906;51.660;6.674;2024-03-02T08:13:15;5.90;;;4.00;;
11699;SDS011;5906;51.660;6.674;2024-03-02T08:15:43;14.90;;;5.70;;
11699;SDS011;5906;51.660;6.674;2024-03-02T08:18:11;12.63;;;4.90;;
11699;SDS011;5906;51.660;6.674;2024-03-02T08:20:38;6.73;;;4.27;;
11699;SDS011;5906;51.660;6.674;2024-03-02T08:23:05;7.70;;;3.90;;
11699;SDS011;5906;51.660;6.674;2024-03-02T08:25:32;6.00;;;3.33;;
11699;SDS011;5906;51.660;6.674;2024-03-02T08:27:59;4.27;;;3.87;;
11699;SDS011;5906;51.660;6.674;2024-03-02T08:30:26;5.80;;;4.40;;
11699;SDS011;5906;51.660;6.674;2024-03-02T08:32:53;5.67;;;3.97;;
11699;SDS011;5906;51.660;6.674;2024-03-02T08:35:19;5.53;;;3.70;;
11699;SDS011;5906;51.660;6.674;2024-03-02T08:38:00;4.67;;;3.90;;
11699;SDS011;5906;51.660;6.674;2024-03-02T08:44:31;5.80;;;3.70;;
11699;SDS011;5906;51.660;6.674;2024-03-02T08:47:00;4.90;;;4.00;;
11699;SDS011;5906;51.660;6.674;2024-03-02T08:49:36;5.77;;;4.10;;
11699;SDS011;5906;51.660;6.674;2024-03-02T08:52:03;4.70;;;3.40;;
11699;SDS011;5906;51.660;6.674;2024-03-02T08:54:30;3.87;;;2.90;;
11699;SDS011;5906;51.660;6.674;2024-03-02T08:56:58;3.73;;;3.40;;
11699;SDS011;5906;51.660;6.674;2024-03-02T08:59:26;4.30;;;3.47;;
11699;SDS011;5906;51.660;6.674;2024-03-02T09:01:54;3.70;;;3.40;;
11699;SDS011;5906;51.660;6.674;2024-03-02T09:04:21;7.53;;;3.97;;
11699;SDS011;5906;51.660;6.674;2024-03-02T09:06:53;3.90;;;3.60;;
11699;SDS011;5906;51.660;6.674;2024-03-02T09:09:30;4.73;;;3.30;;
11699;SDS011;5906;51.660;6.674;2024-03-02T09:12:02;3.30;;;3.00;;
11699;SDS011;5906;51.660;6.674;2024-03-02T09:14:32;3.50;;;3.20;;
11699;SDS011;5906;51.660;6.674;2024-03-02T09:17:06;5.90;;;3.43;;
11699;SDS011;5906;51.660;6.674;2024-03-02T09:19:35;3.20;;;3.00;;
11699;SDS011;5906;51.660;6.674;2024-03-02T09:22:04;3.80;;;3.00;;
11699;SDS011;5906;51.660;6.674;2024-03-02T09:24:34;4.27;;;3.00;;
11699;SDS011;5906;51.660;6.674;2024-03-02T09:27:02;3.30;;;3.00;;
11699;SDS011;5906;51.660;6.674;2024-03-02T09:29:30;5.90;;;3.00;;
11699;SDS011;5906;51.660;6.674;2024-03-02T09:32:01;4.77;;;3.03;;
11699;SDS011;5906;51.660;6.674;2024-03-02T09:34:30;3.10;;;2.90;;
11699;SDS011;5906;51.660;6.674;2024-03-02T09:36:58;4.13;;;2.87;;
11699;SDS011;5906;51.660;6.674;2024-03-02T09:39:25;4.07;;;2.70;;
11699;SDS011;5906;51.660;6.674;2024-03-02T09:41:51;9.50;;;2.90;;
11699;SDS011;5906;51.660;6.674;2024-03-02T09:44:21;6.53;;;3.23;;
11699;SDS011;5906;51.660;6.674;2024-03-02T09:46:49;5.33;;;3.07;;
11699;SDS011;5906;51.660;6.674;2024-03-02T09:49:19;5.50;;;2.70;;
11699;SDS011;5906;51.660;6.674;2024-03-02T09:51:49;2.60;;;2.50;;
11699;SDS011;5906;51.660;6.674;2024-03-02T09:54:17;5.03;;;2.90;;
11699;SDS011;5906;51.660;6.674;2024-03-02T09:56:49;8.17;;;3.00;;
11699;SDS011;5906;51.660;6.674;2024-03-02T09:59:17;5.83;;;2.70;;
11699;SDS011;5906;51.660;6.674;2024-03-02T10:02:02;4.80;;;3.00;;
11699;SDS011;5906;51.660;6.674;2024-03-02T10:04:30;2.73;;;2.47;;
11699;SDS011;5906;51.660;6.674;2024-03-02T10:07:09;2.63;;;2.53;;
11699;SDS011;5906;51.660;6.674;2024-03-02T10:09:44;3.70;;;3.10;;
11699;SDS011;5906;51.660;6.674;2024-03-02T10:12:13;2.73;;;2.57;;
11699;SDS011;5906;51.660;6.674;2024-03-02T10:14:45;4.60;;;2.83;;
11699;SDS011;5906;51.660;6.674;2024-03-02T10:17:16;2.70;;;2.50;;
11699;SDS011;5906;51.660;6.674;2024-03-02T10:19:44;5.53;;;2.30;;
11699;SDS011;5906;51.660;6.674;2024-03-02T10:22:10;2.90;;;2.60;;
11699;SDS011;5906;51.660;6.674;2024-03-02T10:24:39;2.30;;;2.10;;
11699;SDS011;5906;51.660;6.674;2024-03-02T10:27:14;4.40;;;2.10;;
11699;SDS011;5906;51.660;6.674;2024-03-02T10:29:45;8.73;;;2.47;;
11699;SDS011;5906;51.660;6.674;2024-03-02T10:32:13;3.40;;;2.50;;
11699;SDS011;5906;51.660;6.674;2024-03-02T10:34:43;3.47;;;3.00;;
11699;SDS011;5906;51.660;6.674;2024-03-02T10:37:11;3.67;;;2.07;;
11699;SDS011;5906;51.660;6.674;2024-03-02T10:39:39;4.50;;;2.47;;
11699;SDS011;5906;51.660;6.674;2024-03-02T10:42:07;5.13;;;2.20;;
11699;SDS011;5906;51.660;6.674;2024-03-02T10:44:35;3.20;;;2.23;;
11699;SDS011;5906;51.660;6.674;2024-03-02T10:47:06;3.60;;;2.23;;
11699;SDS011;5906;51.660;6.674;2024-03-02T10:49:38;3.00;;;2.07;;
11699;SDS011;5906;51.660;6.674;2024-03-02T10:52:17;2.80;;;2.13;;
11699;SDS011;5906;51.660;6.674;2024-03-02T10:54:49;2.60;;;2.40;;
11699;SDS011;5906;51.660;6.674;2024-03-02T10:57:16;2.20;;;1.90;;
11699;SDS011;5906;51.660;6.674;2024-03-02T10:59:52;13.30;;;2.50;;
11699;SDS011;5906;51.660;6.674;2024-03-02T11:02:25;7.50;;;2.57;;
11699;SDS011;5906;51.660;6.674;2024-03-02T11:04:54;3.27;;;2.20;;
11699;SDS011;5906;51.660;6.674;2024-03-02T11:07:22;2.97;;;1.67;;
11699;SDS011;5906;51.660;6.674;2024-03-02T11:09:54;2.13;;;1.60;;
11699;SDS011;5906;51.660;6.674;2024-03-02T11:12:29;1.80;;;1.70;;
11699;SDS011;5906;51.660;6.674;2024-03-02T11:15:02;2.60;;;1.80;;
11699;SDS011;5906;51.660;6.674;2024-03-02T11:17:36;3.03;;;2.00;;
11699;SDS011;5906;51.660;6.674;2024-03-02T11:20:05;4.80;;;3.00;;
11699;SDS011;5906;51.660;6.674;2024-03-02T11:22:35;4.93;;;3.07;;
11699;SDS011;5906;51.660;6.674;2024-03-02T11:25:03;5.17;;;2.13;;
11699;SDS011;5906;51.660;6.674;2024-03-02T11:28:16;1.97;;;1.87;;
11699;SDS011;5906;51.660;6.674;2024-03-02T11:33:01;5.27;;;2.10;;
11699;SDS011;5906;51.660;6.674;2024-03-02T11:35:41;3.60;;;2.70;;
11699;SDS011;5906;51.660;6.674;2024-03-02T11:38:10;2.93;;;2.33;;
11699;SDS011;5906;51.660;6.674;2024-03-02T11:40:43;4.37;;;2.73;;
11699;SDS011;5906;51.660;6.674;2024-03-02T11:43:12;5.23;;;2.70;;
11699;SDS011;5906;51.660;6.674;2024-03-02T11:45:41;4.60;;;3.00;;
11699;SDS011;5906;51.660;6.674;2024-03-02T11:48:14;7.60;;;3.00;;
11699;SDS011;5906;51.660;6.674;2024-03-02T11:50:47;3.60;;;2.47;;
11699;SDS011;5906;51.660;6.674;2024-03-02T11:53:19;3.70;;;2.53;;
11699;SDS011;5906;51.660;6.674;2024-03-02T11:55:52;6.77;;;1.87;;
11699;SDS011;5906;51.660;6.674;2024-03-02T11:58:26;2.70;;;2.27;;
11699;SDS011;5906;51.660;6.674;2024-03-02T12:00:54;7.93;;;1.90;;
11699;SDS011;5906;51.660;6.674;2024-03-02T12:03:23;4.40;;;2.30;;
11699;SDS011;5906;51.660;6.674;2024-03-02T12:05:53;3.10;;;2.00;;
11699;SDS011;5906;51.660;6.674;2024-03-02T12:08:20;2.47;;;1.87;;
11699;SDS011;5906;51.660;6.674;2024-03-02T12:11:00;5.60;;;1.80;;
11699;SDS011;5906;51.660;6.674;2024-03-02T12:13:52;2.73;;;2.20;;
11699;SDS011;5906;51.660;6.674;2024-03-02T12:16:25;7.90;;;2.50;;
11699;SDS011;5906;51.660;6.674;2024-03-02T12:18:52;7.43;;;2.67;;
11699;SDS011;5906;51.660;6.674;2024-03-02T12:21:20;4.07;;;2.53;;
11699;SDS011;5906;51.660;6.674;2024-03-02T12:23:50;4.63;;;3.00;;
11699;SDS011;5906;51.660;6.674;2024-03-02T12:26:17;4.17;;;2.40;;
11699;SDS011;5906;51.660;6.674;2024-03-02T12:28:58;4.97;;;2.60;;
11699;SDS011;5906;51.660;6.674;2024-03-02T12:31:25;2.27;;;1.97;;
11699;SDS011;5906;51.660;6.674;2024-03-02T12:33:55;7.17;;;2.60;;
11699;SDS011;5906;51.660;6.674;2024-03-02T12:36:23;4.53;;;2.47;;
11699;SDS011;5906;51.660;6.674;2024-03-02T12:38:52;3.70;;;2.20;;
11699;SDS011;5906;51.660;6.674;2024-03-02T12:41:30;7.73;;;3.00;;
11699;SDS011;5906;51.660;6.674;2024-03-02T12:44:00;3.10;;;2.70;;
11699;SDS011;5906;51.660;6.674;2024-03-02T12:46:58;5.00;;;2.47;;
11699;SDS011;5906;51.660;6.674;2024-03-02T12:49:34;4.60;;;2.83;;
11699;SDS011;5906;51.660;6.674;2024-03-02T12:52:15;4.23;;;2.23;;
11699;SDS011;5906;51.660;6.674;2024-03-02T12:54:52;6.20;;;2.47;;
11699;SDS011;5906;51.660;6.674;2024-03-02T12:57:43;2.30;;;2.10;;
11699;SDS011;5906;51.660;6.674;2024-03-02T13:00:25;2.90;;;1.90;;
11699;SDS011;5906;51.660;6.674;2024-03-02T13:02:57;3.00;;;1.90;;
11699;SDS011;5906;51.660;6.674;2024-03-02T13:05:32;2.57;;;2.30;;
11699;SDS011;5906;51.660;6.674;2024-03-02T13:07:59;3.43;;;2.20;;
11699;SDS011;5906;51.660;6.674;2024-03-02T13:10:27;2.50;;;2.30;;
11699;SDS011;5906;51.660;6.674;2024-03-02T13:12:55;2.83;;;2.13;;
11699;SDS011;5906;51.660;6.674;2024-03-02T13:15:23;7.10;;;2.57;;
11699;SDS011;5906;51.660;6.674;2024-03-02T13:17:50;7.63;;;2.57;;
11699;SDS011;5906;51.660;6.674;2024-03-02T13:20:17;2.50;;;2.30;;
11699;SDS011;5906;51.660;6.674;2024-03-02T13:22:49;4.53;;;2.40;;
11699;SDS011;5906;51.660;6.674;2024-03-02T13:25:16;2.70;;;2.33;;
11699;SDS011;5906;51.660;6.674;2024-03-02T13:27:43;6.87;;;2.53;;
11699;SDS011;5906;51.660;6.674;2024-03-02T13:30:10;3.00;;;2.20;;
11699;SDS011;5906;51.660;6.674;2024-03-02T13:32:37;3.03;;;2.10;;
11699;SDS011;5906;51.660;6.674;2024-03-02T13:35:04;2.77;;;2.20;;
11699;SDS011;5906;51.660;6.674;2024-03-02T13:37:32;4.13;;;2.37;;
11699;SDS011;5906;51.660;6.674;2024-03-02T13:39:59;1.90;;;1.80;;
11699;SDS011;5906;51.660;6.674;2024-03-02T13:42:26;2.30;;;2.10;;
11699;SDS011;5906;51.660;6.674;2024-03-02T13:44:54;2.77;;;2.10;;
11699;SDS011;5906;51.660;6.674;2024-03-02T13:47:21;8.67;;;2.13;;
11699;SDS011;5906;51.660;6.674;2024-03-02T13:49:49;7.30;;;2.30;;
11699;SDS011;5906;51.660;6.674;2024-03-02T13:52:16;5.70;;;2.30;;
11699;SDS011;5906;51.660;6.674;2024-03-02T13:54:44;2.73;;;2.23;;
11699;SDS011;5906;51.660;6.674;2024-03-02T13:57:12;6.50;;;2.00;;
11699;SDS011;5906;51.660;6.674;2024-03-02T13:59:40;2.80;;;2.30;;
11699;SDS011;5906;51.660;6.674;2024-03-02T14:02:09;3.07;;;1.70;;
11699;SDS011;5906;51.660;6.674;2024-03-02T14:04:38;1.80;;;1.70;;
11699;SDS011;5906;51.660;6.674;2024-03-02T14:07:06;3.20;;;2.00;;
11699;SDS011;5906;51.660;6.674;2024-03-02T14:09:34;2.50;;;1.80;;
11699;SDS011;5906;51.660;6.674;2024-03-02T14:12:03;4.70;;;1.70;;
11699;SDS011;5906;51.660;6.674;2024-03-02T14:14:31;1.93;;;1.80;;
11699;SDS011;5906;51.660;6.674;2024-03-02T14:17:00;5.00;;;1.93;;
11699;SDS011;5906;51.660;6.674;2024-03-02T14:19:30;2.73;;;1.80;;
11699;SDS011;5906;51.660;6.674;2024-03-02T14:21:58;2.10;;;1.93;;
11699;SDS011;5906;51.660;6.674;2024-03-02T14:24:26;3.57;;;1.93;;
11699;SDS011;5906;51.660;6.674;2024-03-02T14:26:56;2.10;;;1.90;;
11699;SDS011;5906;51.660;6.674;2024-03-02T14:29:45;1.83;;;1.70;;
11699;SDS011;5906;51.660;6.674;2024-03-02T14:32:12;2.80;;;1.80;;
11699;SDS011;5906;51.660;6.674;2024-03-02T14:34:39;1.97;;;1.50;;
11699;SDS011;5906;51.660;6.674;2024-03-02T14:37:06;3.13;;;1.70;;
11699;SDS011;5906;51.660;6.674;2024-03-02T14:39:33;2.43;;;2.00;;
11699;SDS011;5906;51.660;6.674;2024-03-02T14:42:02;1.80;;;1.70;;
11699;SDS011;5906;51.660;6.674;2024-03-02T14:44:29;1.70;;;1.60;;
11699;SDS011;5906;51.660;6.674;2024-03-02T14:46:56;1.87;;;1.77;;
11699;SDS011;5906;51.660;6.674;2024-03-02T14:49:25;2.90;;;1.70;;
11699;SDS011;5906;51.660;6.674;2024-03-02T14:51:52;1.70;;;1.60;;
11699;SDS011;5906;51.660;6.674;2024-03-02T14:54:19;1.77;;;1.53;;
11699;SDS011;5906;51.660;6.674;2024-03-02T14:56:46;1.80;;;1.70;;
11699;SDS011;5906;51.660;6.674;2024-03-02T14:59:14;2.30;;;2.03;;
11699;SDS011;5906;51.660;6.674;2024-03-02T15:01:41;2.13;;;1.90;;
11699;SDS011;5906;51.660;6.674;2024-03-02T15:04:08;3.03;;;1.63;;
11699;SDS011;5906;51.660;6.674;2024-03-02T15:06:36;4.23;;;1.80;;
11699;SDS011;5906;51.660;6.674;2024-03-02T15:09:03;2.20;;;2.00;;
11699;SDS011;5906;51.660;6.674;2024-03-02T15:11:30;2.33;;;1.80;;
11699;SDS011;5906;51.660;6.674;2024-03-02T15:13:57;6.97;;;1.73;;
11699;SDS011;5906;51.660;6.674;2024-03-02T15:16:24;2.30;;;1.67;;
11699;SDS011;5906;51.660;6.674;2024-03-02T15:18:51;1.63;;;1.50;;
11699;SDS011;5906;51.660;6.674;2024-03-02T15:21:18;3.13;;;1.70;;
11699;SDS011;5906;51.660;6.674;2024-03-02T15:23:48;1.63;;;1.53;;